createdAt,value
2019-02-25T00:01:28.871Z,74.30
2019-02-25T00:04:17.186Z,74.50
2019-02-25T00:07:05.437Z,75.20
2019-02-25T00:09:53.663Z,76.00
2019-02-25T00:12:42.242Z,75.00
2019-02-25T00:15:30.691Z,73.90
2019-02-25T00:21:06.731Z,73.80
2019-02-25T00:23:55.179Z,73.00
2019-02-25T00:26:43.395Z,72.30
2019-02-25T00:29:31.939Z,73.60
2019-02-25T00:32:20.227Z,73.10
2019-02-25T00:35:08.519Z,73.20
2019-02-25T00:37:56.760Z,73.40
2019-02-25T00:40:44.945Z,74.10
2019-02-25T00:43:33.163Z,74.50
2019-02-25T00:46:21.663Z,74.50
2019-02-25T00:49:09.950Z,74.50
2019-02-25T00:51:58.309Z,73.60
2019-02-25T00:54:40.005Z,73.70
2019-02-25T00:57:21.457Z,73.90
2019-02-25T00:59:50.587Z,74.60
2019-02-25T01:02:38.959Z,74.70
2019-02-25T01:05:27.474Z,75.20
2019-02-25T01:08:17.061Z,75.30
2019-02-25T01:11:05.472Z,76.10
2019-02-25T01:13:53.698Z,75.20
2019-02-25T01:16:42.206Z,74.90
2019-02-25T01:19:30.496Z,74.60
2019-02-25T01:22:18.742Z,74.70
2019-02-25T01:24:59.708Z,74.60
2019-02-25T01:27:40.776Z,74.10
2019-02-25T01:30:21.440Z,73.70
2019-02-25T01:33:02.870Z,73.20
2019-02-25T01:38:26.968Z,73.80
2019-02-25T01:43:38.403Z,74.40
2019-02-25T01:46:26.848Z,74.30
2019-02-25T01:49:15.079Z,74.40
2019-02-25T01:51:44.173Z,74.50
2019-02-25T01:54:32.378Z,74.90
2019-02-25T01:57:20.574Z,75.10
2019-02-25T02:00:10.676Z,75.60
2019-02-25T02:02:59.152Z,75.60
2019-02-25T02:05:47.350Z,75.50
2019-02-25T02:08:16.434Z,76.10
2019-02-25T02:11:04.900Z,76.40
2019-02-25T02:13:53.111Z,76.80
2019-02-25T02:16:41.319Z,77.00
2019-02-25T02:19:10.736Z,77.00
2019-02-25T02:21:59.416Z,76.80
2019-02-25T02:24:39.767Z,76.80
2019-02-25T02:27:20.618Z,77.10
2019-02-25T02:30:01.840Z,77.50
2019-02-25T02:35:24.814Z,77.50
2019-02-25T02:37:54.208Z,77.20
2019-02-25T02:40:42.404Z,77.40
2019-02-25T02:43:30.668Z,77.40
2019-02-25T02:46:38.200Z,77.50
2019-02-25T02:49:26.679Z,77.50
2019-02-25T02:52:14.934Z,77.40
2019-02-25T02:55:03.256Z,77.10
2019-02-25T02:57:51.596Z,77.40
2019-02-25T03:00:20.861Z,77.10
2019-02-25T03:03:09.194Z,77.70
2019-02-25T03:05:57.426Z,78.30
2019-02-25T03:08:45.700Z,78.70
2019-02-25T03:11:33.982Z,79.40
2019-02-25T03:14:03.385Z,79.90
2019-02-25T03:16:51.647Z,80.40
2019-02-25T03:19:20.773Z,80.50
2019-02-25T03:22:09.043Z,81.00
2019-02-25T03:24:49.596Z,81.20
2019-02-25T03:27:30.959Z,81.80
2019-02-25T03:30:12.729Z,82.50
2019-02-25T03:32:53.451Z,82.10
2019-02-25T03:35:34.550Z,82.80
2019-02-25T03:38:03.860Z,82.90
2019-02-25T03:40:33.154Z,82.60
2019-02-25T03:43:21.716Z,82.50
2019-02-25T03:46:09.998Z,82.20
2019-02-25T03:48:58.296Z,82.00
2019-02-25T03:51:46.584Z,82.10
2019-02-25T03:54:34.811Z,81.90
2019-02-25T03:57:04.029Z,82.00
2019-02-25T03:59:52.606Z,81.80
2019-02-25T04:02:40.851Z,81.60
2019-02-25T04:05:29.270Z,81.90
2019-02-25T04:08:17.618Z,82.60
2019-02-25T04:11:06.197Z,83.30
2019-02-25T04:13:54.475Z,83.70
2019-02-25T04:16:43.104Z,84.10
2019-02-25T04:19:31.384Z,85.40
2019-02-25T04:22:19.647Z,86.60
2019-02-25T04:25:00.943Z,88.60
2019-02-25T04:27:30.354Z,90.20
2019-02-25T04:30:18.680Z,91.10
2019-02-25T04:33:07.105Z,91.70
2019-02-25T04:35:56.304Z,91.90
2019-02-25T04:38:44.522Z,92.40
2019-02-25T04:41:33.049Z,92.60
2019-02-25T04:44:21.375Z,94.40
2019-02-25T04:47:10.300Z,94.80
2019-02-25T04:49:58.625Z,91.80
2019-02-25T04:52:46.956Z,89.90
2019-02-25T04:55:35.186Z,87.60
2019-02-25T04:58:23.665Z,86.90
2019-02-25T05:01:12.270Z,87.00
2019-02-25T05:03:41.467Z,87.80
2019-02-25T05:06:10.646Z,88.50
2019-02-25T05:08:39.745Z,88.80
2019-02-25T05:11:09.201Z,89.80
2019-02-25T05:13:38.342Z,89.70
2019-02-25T05:16:07.493Z,90.00
2019-02-25T05:18:36.675Z,90.40
2019-02-25T05:21:05.877Z,90.70
2019-02-25T05:23:35.371Z,90.70
2019-02-25T05:26:04.482Z,90.80
2019-02-25T05:28:33.867Z,91.10
2019-02-25T05:31:03.142Z,91.20
2019-02-25T05:33:32.400Z,91.50
2019-02-25T05:36:01.581Z,92.00
2019-02-25T05:38:30.707Z,92.30
2019-02-25T05:41:00.166Z,93.00
2019-02-25T05:43:29.268Z,93.40
2019-02-25T05:45:58.766Z,93.50
2019-02-25T05:48:27.887Z,93.70
2019-02-25T05:50:56.997Z,94.00
2019-02-25T05:53:26.157Z,94.30
2019-02-25T05:55:55.305Z,94.20
2019-02-25T05:58:24.987Z,96.20
2019-02-25T06:00:54.237Z,95.80
2019-02-25T06:03:23.378Z,95.50
2019-02-25T06:05:52.582Z,95.10
2019-02-25T06:08:22.180Z,95.00
2019-02-25T06:10:52.498Z,95.50
2019-02-25T06:13:22.623Z,96.40
2019-02-25T06:15:52.088Z,96.10
2019-02-25T06:18:21.187Z,96.30
2019-02-25T06:20:50.668Z,96.80
2019-02-25T06:23:19.780Z,97.10
2019-02-25T06:25:48.899Z,96.90
2019-02-25T06:28:18.118Z,96.90
2019-02-25T06:30:47.577Z,96.50
2019-02-25T06:33:16.663Z,96.50
2019-02-25T06:35:45.767Z,96.20
2019-02-25T06:38:15.189Z,96.20
2019-02-25T06:40:44.650Z,96.70
2019-02-25T06:43:13.995Z,96.20
2019-02-25T06:45:43.085Z,96.30
2019-02-25T06:48:12.552Z,96.90
2019-02-25T06:50:41.989Z,96.90
2019-02-25T06:53:11.054Z,97.30
2019-02-25T06:55:40.505Z,97.80
2019-02-25T06:58:10.059Z,97.90
2019-02-25T07:00:39.539Z,98.10
2019-02-25T07:03:09.670Z,98.00
2019-02-25T07:06:00.916Z,97.80
2019-02-25T07:08:58.975Z,98.10
2019-02-25T07:11:40.902Z,98.70
2019-02-25T07:14:29.040Z,98.60
2019-02-25T07:17:08.767Z,98.20
2019-02-25T07:19:47.892Z,97.90
2019-02-25T07:22:23.574Z,97.00
2019-02-25T07:25:30.418Z,96.00
2019-02-25T07:28:22.351Z,94.60
2019-02-25T07:31:19.343Z,93.50
2019-02-25T07:33:59.142Z,92.30
2019-02-25T07:36:38.096Z,91.50
2019-02-25T07:39:32.270Z,90.10
2019-02-25T07:45:11.458Z,88.50
2019-02-25T07:47:57.107Z,86.50
2019-02-25T07:50:47.425Z,85.20
2019-02-25T07:53:50.553Z,84.10
2019-02-25T07:56:51.123Z,83.00
2019-02-25T07:59:42.940Z,82.90
2019-02-25T08:02:31.282Z,84.40
2019-02-25T08:05:25.207Z,84.20
2019-02-25T08:08:12.527Z,83.30
2019-02-25T08:11:03.695Z,81.10
2019-02-25T08:13:47.851Z,80.60
2019-02-25T08:16:24.315Z,80.00
2019-02-25T08:19:13.188Z,79.50
2019-02-25T08:22:01.340Z,79.30
2019-02-25T08:24:41.884Z,79.20
2019-02-25T08:27:33.369Z,77.60
2019-02-25T08:30:27.584Z,76.80
2019-02-25T08:33:14.833Z,75.40
2019-02-25T08:36:37.675Z,73.50
2019-02-25T08:39:34.228Z,73.50
2019-02-25T08:42:08.654Z,72.10
2019-02-25T08:44:51.742Z,69.60
2019-02-25T08:47:30.967Z,69.30
2019-02-25T08:50:03.579Z,68.80
2019-02-25T08:52:33.074Z,67.40
2019-02-25T08:55:02.587Z,67.10
2019-02-25T08:57:31.686Z,66.70
2019-02-25T09:00:01.059Z,65.40
2019-02-25T09:02:30.529Z,63.80
2019-02-25T09:04:59.666Z,63.90
2019-02-25T09:07:28.828Z,63.50
2019-02-25T09:09:58.363Z,62.20
2019-02-25T09:12:27.767Z,61.20
2019-02-25T09:14:56.934Z,61.00
2019-02-25T09:17:26.472Z,60.90
2019-02-25T09:19:55.875Z,61.20
2019-02-25T09:22:25.423Z,59.50
2019-02-25T09:24:54.779Z,58.20
2019-02-25T09:27:23.964Z,57.80
2019-02-25T09:29:53.374Z,57.00
2019-02-25T09:32:22.514Z,56.30
2019-02-25T09:34:51.590Z,55.70
2019-02-25T09:37:20.700Z,55.60
2019-02-25T09:39:51.955Z,55.50
2019-02-25T09:42:21.074Z,54.50
2019-02-25T09:44:50.615Z,54.30
2019-02-25T09:47:19.801Z,54.20
2019-02-25T09:49:50.917Z,53.80
2019-02-25T09:52:19.691Z,53.70
2019-02-25T09:54:48.803Z,52.60
2019-02-25T09:57:17.927Z,52.20
2019-02-25T09:59:47.035Z,51.80
2019-02-25T10:02:35.277Z,52.40
2019-02-25T10:05:04.399Z,51.40
2019-02-25T10:07:33.499Z,51.40
2019-02-25T10:10:02.843Z,51.20
2019-02-25T10:12:31.933Z,52.00
2019-02-25T10:15:00.979Z,51.20
2019-02-25T10:17:30.401Z,51.50
2019-02-25T10:19:59.507Z,52.30
2019-02-25T10:22:28.854Z,51.30
2019-02-25T10:25:02.340Z,50.90
2019-02-25T10:27:31.623Z,50.80
2019-02-25T10:30:01.506Z,50.10
2019-02-25T10:32:30.691Z,50.60
2019-02-25T10:35:00.158Z,49.90
2019-02-25T10:37:30.191Z,50.00
2019-02-25T10:39:59.357Z,48.70
2019-02-25T10:42:29.508Z,49.20
2019-02-25T10:44:59.355Z,47.10
2019-02-25T10:47:28.429Z,47.60
2019-02-25T10:49:58.705Z,48.70
2019-02-25T10:52:28.587Z,49.40
2019-02-25T10:54:58.292Z,50.40
2019-02-25T10:57:29.238Z,50.40
2019-02-25T10:59:58.803Z,50.70
2019-02-25T11:02:27.886Z,50.20
2019-02-25T11:04:57.757Z,50.00
2019-02-25T11:07:26.934Z,49.10
2019-02-25T11:10:15.658Z,49.20
2019-02-25T11:12:44.867Z,48.90
2019-02-25T11:15:15.908Z,49.00
2019-02-25T11:17:45.852Z,48.90
2019-02-25T11:20:16.326Z,48.50
2019-02-25T11:22:46.678Z,49.20
2019-02-25T11:25:16.861Z,48.60
2019-02-25T11:27:46.399Z,49.10
2019-02-25T11:30:16.679Z,49.50
2019-02-25T11:32:46.671Z,49.50
2019-02-25T11:35:16.107Z,49.00
2019-02-25T11:37:45.280Z,49.60
2019-02-25T11:40:14.428Z,48.40
2019-02-25T11:42:43.838Z,48.30
2019-02-25T11:45:12.957Z,48.30
2019-02-25T11:47:42.108Z,48.30
2019-02-25T11:50:12.722Z,48.50
2019-02-25T11:52:41.793Z,48.90
2019-02-25T11:55:12.130Z,47.70
2019-02-25T11:57:41.438Z,47.60
2019-02-25T12:00:19.038Z,47.00
2019-02-25T12:02:48.607Z,46.90
2019-02-25T12:05:18.623Z,47.20
2019-02-25T12:07:47.859Z,47.60
2019-02-25T12:10:17.083Z,47.60
2019-02-25T12:12:46.160Z,47.50
2019-02-25T12:15:16.000Z,47.30
2019-02-25T12:17:45.515Z,47.30
2019-02-25T12:20:14.709Z,47.30
2019-02-25T12:22:43.951Z,47.50
2019-02-25T12:25:14.352Z,47.80
2019-02-25T12:27:43.546Z,47.70
2019-02-25T12:30:15.140Z,47.70
2019-02-25T12:32:44.309Z,47.60
2019-02-25T12:35:13.787Z,47.40
2019-02-25T12:37:43.364Z,47.90
2019-02-25T12:40:12.599Z,48.20
2019-02-25T12:42:42.060Z,48.00
2019-02-25T12:45:12.447Z,48.30
2019-02-25T12:47:41.622Z,48.60
2019-02-25T12:50:11.109Z,48.90
2019-02-25T12:52:40.294Z,49.30
2019-02-25T12:55:10.641Z,49.50
2019-02-25T12:57:40.089Z,49.60
2019-02-25T13:00:12.211Z,49.70
2019-02-25T13:02:41.291Z,49.60
2019-02-25T13:05:12.860Z,50.00
2019-02-25T13:07:42.271Z,50.20
2019-02-25T13:10:13.207Z,50.60
2019-02-25T13:12:42.287Z,50.00
2019-02-25T13:15:13.818Z,50.10
2019-02-25T13:17:43.007Z,50.30
2019-02-25T13:20:12.137Z,50.80
2019-02-25T13:22:41.322Z,50.70
2019-02-25T13:25:13.072Z,50.50
2019-02-25T13:27:42.043Z,50.70
2019-02-25T13:30:13.575Z,50.50
2019-02-25T13:32:42.853Z,50.50
2019-02-25T13:35:12.694Z,50.80
2019-02-25T13:37:41.795Z,51.10
2019-02-25T13:40:11.424Z,50.60
2019-02-25T13:42:40.590Z,50.30
2019-02-25T13:45:10.986Z,50.20
2019-02-25T13:47:40.155Z,50.80
2019-02-25T13:50:10.826Z,51.30
2019-02-25T13:52:47.890Z,50.80
2019-02-25T13:55:10.867Z,50.80
2019-02-25T13:57:40.455Z,50.60
2019-02-25T14:00:15.500Z,50.90
2019-02-25T14:02:45.103Z,50.50
2019-02-25T14:05:14.359Z,50.50
2019-02-25T14:07:43.805Z,50.80
2019-02-25T14:10:13.134Z,50.80
2019-02-25T14:12:42.474Z,50.40
2019-02-25T14:15:14.223Z,50.40
2019-02-25T14:17:43.443Z,51.00
2019-02-25T14:20:14.723Z,50.60
2019-02-25T14:22:43.966Z,50.80
2019-02-25T14:25:13.780Z,51.00
2019-02-25T14:27:45.482Z,50.90
2019-02-25T14:30:16.158Z,51.00
2019-02-25T14:32:45.415Z,51.30
2019-02-25T14:35:15.895Z,51.10
2019-02-25T14:37:45.253Z,51.50
2019-02-25T14:40:16.882Z,51.60
2019-02-25T14:42:48.774Z,51.50
2019-02-25T14:45:19.635Z,51.50
2019-02-25T14:47:49.702Z,52.40
2019-02-25T14:50:19.684Z,51.80
2019-02-25T14:52:49.363Z,51.50
2019-02-25T14:55:18.705Z,51.70
2019-02-25T14:57:47.971Z,51.70
2019-02-25T15:00:23.360Z,52.00
2019-02-25T15:02:52.406Z,52.20
2019-02-25T15:05:21.997Z,51.90
2019-02-25T15:07:52.873Z,52.40
2019-02-25T15:10:26.731Z,52.60
2019-02-25T15:12:56.561Z,52.70
2019-02-25T15:15:24.575Z,52.50
2019-02-25T15:17:53.877Z,52.30
2019-02-25T15:20:26.126Z,52.30
2019-02-25T15:22:56.789Z,52.70
2019-02-25T15:25:29.225Z,52.50
2019-02-25T15:27:57.061Z,52.60
2019-02-25T15:30:30.393Z,52.70
2019-02-25T15:32:59.882Z,53.10
2019-02-25T15:35:34.071Z,52.70
2019-02-25T15:38:00.752Z,52.50
2019-02-25T15:40:29.898Z,52.90
2019-02-25T15:43:10.370Z,53.40
2019-02-25T15:45:40.626Z,53.30
2019-02-25T15:48:14.543Z,53.50
2019-02-25T15:50:46.101Z,53.20
2019-02-25T15:53:16.204Z,53.60
2019-02-25T15:55:45.809Z,53.70
2019-02-25T15:58:15.664Z,53.70
2019-02-25T16:00:45.399Z,54.00
2019-02-25T16:03:16.263Z,53.70
2019-02-25T16:05:46.043Z,53.20
2019-02-25T16:08:19.061Z,53.70
2019-02-25T16:10:49.552Z,53.80
2019-02-25T16:13:18.251Z,54.10
2019-02-25T16:15:47.413Z,53.70
2019-02-25T16:18:17.248Z,53.90
2019-02-25T16:20:46.411Z,53.90
2019-02-25T16:23:15.678Z,53.80
2019-02-25T16:25:46.188Z,53.90
2019-02-25T16:28:17.468Z,54.10
2019-02-25T16:30:47.412Z,54.10
2019-02-25T16:33:17.655Z,54.30
2019-02-25T16:35:46.987Z,54.50
2019-02-25T16:38:16.675Z,55.10
2019-02-25T16:40:46.258Z,55.00
2019-02-25T16:43:18.794Z,55.00
2019-02-25T16:45:48.956Z,55.30
2019-02-25T16:48:23.546Z,55.60
2019-02-25T16:50:50.456Z,55.60
2019-02-25T16:53:20.345Z,55.80
2019-02-25T16:55:51.433Z,55.80
2019-02-25T16:58:21.365Z,55.90
2019-02-25T17:00:50.681Z,56.00
2019-02-25T17:03:23.081Z,56.50
2019-02-25T17:05:53.164Z,56.90
2019-02-25T17:08:23.996Z,57.40
2019-02-25T17:10:55.514Z,57.80
2019-02-25T17:13:25.489Z,58.10
2019-02-25T17:15:55.445Z,59.60
2019-02-25T17:18:24.656Z,60.00
2019-02-25T17:21:13.005Z,60.70
2019-02-25T17:23:42.339Z,61.20
2019-02-25T17:26:12.628Z,62.00
2019-02-25T17:28:42.606Z,62.30
2019-02-25T17:31:14.331Z,62.70
2019-02-25T17:33:46.935Z,63.10
2019-02-25T17:36:17.415Z,63.00
2019-02-25T17:38:47.570Z,63.60
2019-02-25T17:41:17.943Z,63.80
2019-02-25T17:43:47.116Z,64.30
2019-02-25T17:46:16.745Z,64.70
2019-02-25T17:48:46.353Z,65.30
2019-02-25T17:51:16.725Z,65.50
2019-02-25T17:53:48.244Z,65.60
2019-02-25T17:56:20.260Z,66.50
2019-02-25T17:58:49.104Z,67.00
2019-02-25T18:01:21.377Z,67.40
2019-02-25T18:03:50.447Z,67.50
2019-02-25T18:06:22.828Z,68.10
2019-02-25T18:08:53.640Z,68.00
2019-02-25T18:11:24.167Z,68.00
2019-02-25T18:13:53.984Z,68.40
2019-02-25T18:16:24.210Z,68.50
2019-02-25T18:18:54.477Z,68.80
2019-02-25T18:21:28.256Z,69.00
2019-02-25T18:23:56.516Z,69.20
2019-02-25T18:26:25.962Z,68.90
2019-02-25T18:28:55.282Z,69.30
2019-02-25T18:31:24.831Z,69.20
2019-02-25T18:33:54.560Z,69.40
2019-02-25T18:36:33.068Z,69.70
2019-02-25T18:39:05.199Z,70.10
2019-02-25T18:41:34.429Z,70.80
2019-02-25T18:44:04.916Z,70.20
2019-02-25T18:46:34.712Z,70.60
2019-02-25T18:49:05.667Z,70.90
2019-02-25T18:51:37.361Z,71.00
2019-02-25T18:54:06.378Z,71.60
2019-02-25T18:56:37.614Z,71.40
2019-02-25T18:59:09.595Z,71.20
2019-02-25T19:01:38.131Z,71.50
2019-02-25T19:04:07.658Z,71.70
2019-02-25T19:06:37.146Z,72.60
2019-02-25T19:09:07.793Z,73.70
2019-02-25T19:11:37.055Z,75.00
2019-02-25T19:14:06.546Z,74.80
2019-02-25T19:16:36.463Z,75.40
2019-02-25T19:19:07.996Z,75.80
2019-02-25T19:21:37.637Z,76.00
2019-02-25T19:24:07.607Z,76.30
2019-02-25T19:26:38.792Z,77.00
2019-02-25T19:29:09.390Z,76.70
2019-02-25T19:31:39.869Z,77.00
2019-02-25T19:34:10.528Z,76.90
2019-02-25T19:36:41.247Z,76.90
2019-02-25T19:39:14.393Z,77.30
2019-02-25T19:41:46.954Z,77.50
2019-02-25T19:44:15.143Z,78.10
2019-02-25T19:46:45.631Z,78.30
2019-02-25T19:49:18.226Z,78.80
2019-02-25T19:51:47.964Z,79.00
2019-02-25T19:54:18.705Z,79.00
2019-02-25T19:56:48.404Z,79.50
2019-02-25T19:59:19.891Z,79.60
2019-02-25T20:01:50.055Z,79.40
2019-02-25T20:04:19.366Z,79.70
2019-02-25T20:06:48.929Z,79.80
2019-02-25T20:09:19.547Z,80.20
2019-02-25T20:11:48.865Z,80.50
2019-02-25T20:14:19.727Z,81.00
2019-02-25T20:16:48.948Z,81.20
2019-02-25T20:19:18.591Z,82.00
2019-02-25T20:21:48.268Z,82.80
2019-02-25T20:24:21.179Z,83.10
2019-02-25T20:26:52.615Z,83.10
2019-02-25T20:29:21.016Z,83.10
2019-02-25T20:31:51.522Z,83.40
2019-02-25T20:34:22.906Z,83.90
2019-02-25T20:36:53.101Z,84.50
2019-02-25T20:39:23.266Z,84.50
2019-02-25T20:41:54.251Z,84.60
2019-02-25T20:44:26.052Z,84.70
2019-02-25T20:46:55.482Z,85.40
2019-02-25T20:49:29.461Z,85.50
2019-02-25T20:52:00.938Z,86.10
2019-02-25T20:54:27.828Z,86.20
2019-02-25T20:56:57.269Z,86.20
2019-02-25T20:59:28.195Z,87.40
2019-02-25T21:01:57.900Z,87.70
2019-02-25T21:04:27.835Z,87.90
2019-02-25T21:06:57.123Z,89.20
2019-02-25T21:09:31.636Z,89.70
2019-02-25T21:12:01.512Z,90.30
2019-02-25T21:14:31.768Z,90.60
2019-02-25T21:17:03.089Z,90.80
2019-02-25T21:19:33.419Z,91.70
2019-02-25T21:22:04.411Z,91.30
2019-02-25T21:24:35.411Z,92.20
2019-02-25T21:27:06.430Z,92.40
2019-02-25T21:29:38.797Z,92.70
2019-02-25T21:32:10.516Z,92.90
2019-02-25T21:34:39.416Z,93.10
2019-02-25T21:37:08.607Z,93.40
2019-02-25T21:39:38.736Z,93.90
2019-02-25T21:42:12.622Z,94.20
2019-02-25T21:44:40.070Z,94.00
2019-02-25T21:47:09.249Z,94.20
2019-02-25T21:49:40.433Z,94.70
2019-02-25T21:52:10.873Z,95.30
2019-02-25T21:54:40.652Z,95.30
2019-02-25T21:57:09.816Z,95.40
2019-02-25T21:59:41.095Z,95.60
2019-02-25T22:02:09.828Z,95.90
2019-02-25T22:04:42.433Z,96.20
2019-02-25T22:07:09.967Z,96.40
2019-02-25T22:09:43.109Z,96.40
2019-02-25T22:12:09.877Z,96.90
2019-02-25T22:14:39.029Z,97.20
2019-02-25T22:17:08.472Z,97.40
2019-02-25T22:19:39.784Z,96.70
2019-02-25T22:22:08.383Z,96.90
2019-02-25T22:24:38.887Z,97.80
2019-02-25T22:27:08.363Z,98.10
2019-02-25T22:29:38.722Z,98.70
2019-02-25T22:32:08.742Z,99.20
2019-02-25T22:34:39.303Z,99.30
2019-02-25T22:37:12.461Z,99.80
2019-02-25T22:39:40.844Z,99.80
2019-02-25T22:42:11.669Z,99.90
2019-02-25T22:44:41.209Z,99.90
2019-02-25T22:47:11.645Z,99.90
2019-02-25T22:49:41.426Z,99.90
2019-02-25T22:52:10.919Z,99.90
2019-02-25T22:54:41.758Z,99.90
2019-02-25T22:57:10.858Z,99.90
2019-02-25T22:59:40.224Z,99.90
2019-02-25T23:02:10.877Z,99.90
2019-02-25T23:04:59.447Z,99.90
2019-02-25T23:07:43.284Z,99.90
2019-02-25T23:10:24.148Z,99.90
2019-02-25T23:13:04.871Z,99.90
2019-02-25T23:15:46.670Z,99.90
2019-02-25T23:18:28.518Z,99.90
2019-02-25T23:21:09.530Z,99.90
2019-02-25T23:23:53.399Z,99.90
2019-02-25T23:26:33.324Z,99.90
2019-02-25T23:31:56.945Z,99.90
2019-02-25T23:34:38.588Z,99.90
2019-02-25T23:37:21.741Z,99.90
2019-02-25T23:42:46.541Z,99.90
2019-02-25T23:48:11.715Z,99.90
2019-02-25T23:50:53.348Z,99.90
2019-02-25T23:53:35.290Z,99.90
2019-02-25T23:56:18.238Z,99.90
